MCB weather

Manjarrez de Caborca Airport
Caborca, Sonora, Mexico

Public forecast

Using degrees Celsius for public forecast. Weather courtesy of forecast.io.

METAR (pilot weather report)

Closest report is (Old) Puerto PeƱasco Airport, 77.5 nm (143.4 km) WNW. Retrieved UTC (0 seconds ago):

TAF (pilot weather forecast)

Forecast is more than 12 hours old.

Closest forecast is Nogales International Airport, 83.1 nm (153.8 km) ENE. Retrieved 2019/05/23 00:39 UTC (1 day ago):

TAF KOLS 232336Z 2400/2424 26007KT P6SM SKC FM240200 VRB04KT P6SM SKC FM241800 22008KT P6SM SKC FM242200 24013G20KT P6SM SKC